| Ora | Descriere | Temp | Se simte | Precipitatii | Umiditate | Vant |
|---|---|---|---|---|---|---|
| 00:00 | Senin | 11.3° | 10° | 0% | 61% | S 11.2 KM/H |
| 01:00 | Senin | 10.5° | 9.3° | 0% | 59% | SSW 10.1 KM/H |
| 02:00 | Senin | 9.7° | 9.5° | 0% | 62% | SW 4.7 KM/H |
| 03:00 | 9.6° | 9.3° | 0% | 63% | S 5 KM/H | |
| 04:00 | 10.1° | 9.4° | 0% | 62% | S 6.5 KM/H | |
| 05:00 | 9.6° | 8.9° | 0% | 62% | S 6.8 KM/H | |
| 06:00 | Senin | 9.1° | 8.3° | 0% | 64% | SSW 6.5 KM/H |
| 07:00 | Senin | 10.6° | 9.9° | 0% | 65% | S 7.2 KM/H |
| 08:00 | Senin | 13.5° | 13.3° | 0% | 58% | SSW 7.2 KM/H |
| 09:00 | Senin | 15.5° | 15.5° | 0% | 53% | SW 9 KM/H |
| 10:00 | 17.4° | 17.4° | 0% | 49% | SSW 9.4 KM/H | |
| 11:00 | 19.4° | 19.4° | 0% | 46% | SSW 11.9 KM/H | |
| 12:00 | Senin | 21° | 21° | 0% | 43% | SW 11.5 KM/H |
| 13:00 | 22.3° | 24.1° | 0% | 40% | SSW 11.2 KM/H | |
| 14:00 | 23.1° | 24.3° | 0% | 37% | SSW 10.8 KM/H | |
| 15:00 | Senin | 23.7° | 24.4° | 0% | 36% | S 10.8 KM/H |
| 16:00 | Senin | 23.3° | 24.3° | 0% | 37% | S 12.2 KM/H |
| 17:00 | Senin | 22.4° | 24.2° | 0% | 41% | S 12.2 KM/H |
| 18:00 | Senin | 22.7° | 24.2° | 0% | 39% | S 12.6 KM/H |
| 19:00 | Senin | 21.5° | 21.5° | 0% | 46% | S 12.2 KM/H |
| 20:00 | Senin | 17.1° | 17.1° | 0% | 54% | SSW 11.2 KM/H |
| 21:00 | Senin | 15.1° | 15.1° | 0% | 58% | S 11.5 KM/H |
| 22:00 | Senin | 13.9° | 13.1° | 0% | 60% | S 11.9 KM/H |
| 23:00 | Senin | 13.2° | 12.1° | 0% | 59% | S 12.2 KM/H |